Columbia Station, Ohio
Current Conditions -  °F | °C
As of 4:51 PM on Thursday 18 Dec 2014 (Local Time) from KCLE Reporting Station
Light Snow Light Snow  
Wind Chill: 22°   Ceiling: 1700
Heat Index: 30°   Visibility: 9mi
Dew Point: 24°   Wind: 8mph
Humidity: 79%   Direction: 240°WSW
Pressure: 30.2"   Gusts: NA
Location:  41.31°N, 81.95°W
Report Text: KCLE 182151Z 24007KT 9SM -SN OVC017 M01/M04 A3020 RMK AO2 SLP234 P0000 T10111044
Loading
Personal Weather Stations






























Interactive Weather Map New forecast layout! Learn more

10-Day Weather Forecast

Advertisements
Track Severe Weather on mobile